Time;durP1;ratioP1;P1;durP2;ratioP2;P2;SDS_P1;SDS_P2;PMS_P1;PMS_P2;Temp;Humidity;BMP_temperature;BMP_pressure;BME280_temperature;BME280_humidity;BME280_pressure;Samples;Min_cycle;Max_cycle;Signal;HPM_P1;HPM_P2
2022/05/10 00:02:15;;;;;;;4.10;3.70;;;22.20;52.00;;;;;;4975563;28;20392;-64
2022/05/10 00:04:44;;;;;;;4.15;3.45;;;22.20;52.00;;;;;;4975181;28;20397;-64
2022/05/10 00:07:10;;;;;;;3.85;3.47;;;22.20;52.00;;;;;;4990409;28;20408;-64
2022/05/10 00:09:35;;;;;;;4.03;3.58;;;22.20;52.10;;;;;;4976179;28;20420;-64
2022/05/10 00:12:01;;;;;;;3.63;3.33;;;22.20;52.10;;;;;;4976862;28;20900;-64
2022/05/10 00:14:30;;;;;;;3.90;3.50;;;22.10;51.90;;;;;;4975302;28;20808;-64
2022/05/10 00:16:56;;;;;;;4.07;3.60;;;22.10;51.80;;;;;;4974732;28;20412;-64
2022/05/10 00:19:22;;;;;;;4.03;3.60;;;22.10;51.90;;;;;;4975259;28;20457;-64
2022/05/10 00:21:49;;;;;;;3.92;3.50;;;22.10;51.80;;;;;;4975014;28;20396;-64
2022/05/10 00:24:15;;;;;;;4.22;3.40;;;22.10;51.80;;;;;;4974869;28;20396;-64
2022/05/10 00:26:41;;;;;;;4.18;3.33;;;22.10;51.90;;;;;;4974411;28;20411;-64
2022/05/10 00:29:07;;;;;;;4.00;3.33;;;22.10;51.90;;;;;;4974680;28;20408;-64
2022/05/10 00:31:34;;;;;;;3.90;3.45;;;22.10;51.80;;;;;;4974938;28;20876;-64
2022/05/10 00:34:01;;;;;;;3.75;3.45;;;22.10;51.80;;;;;;4974960;28;20400;-64
2022/05/10 00:36:27;;;;;;;5.28;3.55;;;22.10;51.90;;;;;;4974974;28;20539;-64
2022/05/10 00:38:53;;;;;;;3.80;3.50;;;22.10;51.90;;;;;;4974305;28;20381;-64
2022/05/10 00:41:52;;;;;;;4.57;3.67;;;22.10;51.90;;;;;;4974728;28;20388;-64
2022/05/10 00:44:23;;;;;;;3.90;3.60;;;22.10;51.70;;;;;;4974794;28;20865;-64
2022/05/10 00:47:07;;;;;;;3.97;3.58;;;22.10;51.80;;;;;;4973173;28;20401;-64
2022/05/10 00:49:41;;;;;;;4.78;3.63;;;22.10;51.70;;;;;;4974506;28;20426;-64
2022/05/10 00:52:24;;;;;;;4.03;3.63;;;22.00;51.70;;;;;;4974624;28;20456;-64
2022/05/10 00:55:07;;;;;;;4.10;3.70;;;22.00;51.70;;;;;;4974255;28;20389;-64
2022/05/10 00:57:39;;;;;;;4.00;3.40;;;22.00;51.70;;;;;;4974369;28;20501;-64
2022/05/10 01:00:31;;;;;;;4.07;3.30;;;22.00;51.70;;;;;;4974488;28;20475;-64
2022/05/10 01:03:48;;;;;;;4.10;3.70;;;22.00;51.60;;;;;;4972190;28;20435;-64
2022/05/10 01:06:30;;;;;;;3.83;3.45;;;22.00;51.60;;;;;;4952021;28;20463;-64
2022/05/10 01:09:12;;;;;;;3.80;3.40;;;22.00;51.50;;;;;;4973769;28;20454;-64
2022/05/10 01:11:58;;;;;;;3.85;3.45;;;22.00;51.50;;;;;;4974005;28;20415;-64
2022/05/10 01:14:41;;;;;;;3.97;3.17;;;22.00;51.30;;;;;;4974269;28;20874;-64
2022/05/10 01:17:07;;;;;;;3.90;3.42;;;22.00;51.40;;;;;;4973706;28;20388;-64
2022/05/10 01:19:32;;;;;;;3.63;3.23;;;22.00;51.40;;;;;;4974144;28;20741;-64
2022/05/10 01:22:30;;;;;;;3.42;3.13;;;22.00;51.20;;;;;;4974133;28;20404;-64
2022/05/10 01:25:42;;;;;;;3.83;3.40;;;22.00;51.30;;;;;;4951366;28;20487;-64
2022/05/10 01:28:27;;;;;;;3.50;3.20;;;21.90;51.20;;;;;;4973953;28;20420;-64
2022/05/10 01:30:55;;;;;;;3.85;3.45;;;21.90;51.30;;;;;;4973342;28;20404;-64
2022/05/10 01:33:29;;;;;;;3.95;3.17;;;21.90;51.30;;;;;;4973885;28;20820;-64
2022/05/10 01:36:15;;;;;;;3.75;3.30;;;21.90;51.20;;;;;;4973839;28;20397;-64
2022/05/10 01:39:13;;;;;;;3.83;3.10;;;21.90;51.20;;;;;;4987825;28;20411;-64
2022/05/10 01:41:56;;;;;;;3.50;3.20;;;21.90;51.20;;;;;;4973080;28;20483;-64
2022/05/10 01:44:35;;;;;;;3.83;3.43;;;21.90;51.10;;;;;;4973699;28;20536;-64
2022/05/10 01:47:13;;;;;;;3.78;3.38;;;21.90;51.10;;;;;;4973185;28;20439;-64
2022/05/10 01:49:47;;;;;;;3.80;3.20;;;21.90;51.10;;;;;;4973378;28;20427;-64
2022/05/10 01:52:23;;;;;;;3.50;3.10;;;21.90;51.10;;;;;;4972264;28;20396;-64
2022/05/10 01:55:02;;;;;;;4.30;3.55;;;21.90;51.20;;;;;;4973259;28;20401;-64
2022/05/10 01:57:30;;;;;;;4.00;3.60;;;21.90;51.20;;;;;;4973430;28;20401;-64
2022/05/10 02:00:16;;;;;;;4.03;3.55;;;21.80;51.10;;;;;;4973311;28;20395;-64
2022/05/10 02:02:50;;;;;;;4.28;3.67;;;21.90;51.20;;;;;;4973139;28;20943;-64
2022/05/10 02:05:29;;;;;;;3.80;3.40;;;21.90;51.10;;;;;;4988072;28;20424;-64
2022/05/10 02:08:01;;;;;;;4.00;3.50;;;21.80;51.10;;;;;;4973238;28;20396;-64
2022/05/10 02:10:37;;;;;;;3.95;3.42;;;21.80;51.10;;;;;;4973136;28;20812;-64
2022/05/10 02:13:11;;;;;;;3.97;3.58;;;21.80;51.50;;;;;;4987379;28;20424;-64
2022/05/10 02:15:49;;;;;;;3.90;3.30;;;21.80;51.00;;;;;;4973061;28;20395;-64
2022/05/10 02:18:18;;;;;;;3.93;3.30;;;21.80;51.00;;;;;;4973094;28;20487;-64
2022/05/10 02:21:02;;;;;;;4.13;3.40;;;21.80;51.00;;;;;;4972916;28;20435;-64
2022/05/10 02:23:35;;;;;;;3.75;3.30;;;21.80;50.90;;;;;;4973024;28;20487;-64
2022/05/10 02:26:10;;;;;;;3.70;3.40;;;21.80;51.00;;;;;;4972949;28;20392;-64
2022/05/10 02:28:50;;;;;;;3.60;3.30;;;21.80;51.00;;;;;;4972780;28;20753;-64
2022/05/10 02:31:27;;;;;;;3.67;3.33;;;21.80;50.90;;;;;;4971469;28;20935;-64
2022/05/10 02:33:55;;;;;;;4.13;3.72;;;21.80;51.00;;;;;;4972752;28;20884;-64
2022/05/10 02:36:20;;;;;;;4.35;3.75;;;21.80;50.90;;;;;;4972827;28;20397;-64
2022/05/10 02:38:47;;;;;;;4.28;3.40;;;21.80;50.90;;;;;;4972743;28;20414;-64
2022/05/10 02:41:16;;;;;;;4.03;3.63;;;21.80;50.90;;;;;;4972029;28;20760;-64
2022/05/10 02:43:51;;;;;;;5.03;3.70;;;21.80;51.00;;;;;;4972672;28;20401;-64
2022/05/10 02:46:17;;;;;;;3.97;3.58;;;21.80;50.90;;;;;;4972694;28;20901;-64
2022/05/10 02:48:46;;;;;;;4.57;3.70;;;21.70;50.80;;;;;;4972325;28;20459;-64
2022/05/10 02:51:12;;;;;;;3.83;3.30;;;21.80;50.80;;;;;;4972230;28;20408;-64
2022/05/10 02:53:37;;;;;;;4.47;3.43;;;21.70;50.80;;;;;;4972520;28;20531;-64
2022/05/10 02:56:06;;;;;;;4.32;3.22;;;21.80;50.80;;;;;;4987074;28;20426;-64
2022/05/10 02:58:47;;;;;;;3.80;3.38;;;21.70;50.80;;;;;;4972284;28;20399;-64
2022/05/10 03:01:39;;;;;;;3.75;3.20;;;21.70;50.70;;;;;;4972163;28;20404;-64
2022/05/10 03:04:07;;;;;;;4.05;3.38;;;21.70;50.70;;;;;;4972600;28;20486;-64
2022/05/10 03:06:33;;;;;;;5.30;3.30;;;21.70;50.80;;;;;;4972480;28;20861;-64
2022/05/10 03:09:00;;;;;;;5.53;3.40;;;21.70;51.90;;;;;;4970779;28;20424;-64
2022/05/10 03:11:27;;;;;;;6.65;5.00;;;21.70;52.10;;;;;;4972294;28;20427;-64
2022/05/10 03:13:53;;;;;;;7.47;5.90;;;21.80;53.30;;;;;;4987380;28;20463;-64
2022/05/10 03:16:19;;;;;;;6.32;5.50;;;21.80;54.20;;;;;;4972610;28;20479;-64
2022/05/10 03:18:45;;;;;;;7.43;4.80;;;21.80;54.70;;;;;;4987628;28;20915;-65
2022/05/10 03:21:12;;;;;;;6.88;4.00;;;21.80;54.30;;;;;;4972131;28;20503;-64
2022/05/10 03:23:38;;;;;;;6.13;3.95;;;21.90;54.00;;;;;;4972366;28;20396;-64
2022/05/10 03:26:04;;;;;;;9.23;4.18;;;21.90;54.00;;;;;;4972339;28;20752;-64
2022/05/10 03:28:30;;;;;;;12.00;4.07;;;21.90;53.80;;;;;;4972345;28;20399;-64
2022/05/10 03:30:56;;;;;;;6.63;3.80;;;22.00;53.90;;;;;;4972039;28;20484;-64
2022/05/10 03:33:22;;;;;;;5.53;3.67;;;22.00;53.80;;;;;;4972154;28;20384;-64
2022/05/10 03:35:48;;;;;;;6.05;3.80;;;22.00;53.70;;;;;;4972248;28;20461;-65
2022/05/10 03:38:14;;;;;;;8.10;3.50;;;22.00;53.50;;;;;;4972220;28;20411;-64
2022/05/10 03:40:40;;;;;;;6.33;3.60;;;22.00;53.60;;;;;;4971864;28;20864;-64
2022/05/10 03:43:08;;;;;;;7.03;3.67;;;22.00;53.50;;;;;;4986600;28;20400;-65
2022/05/10 03:45:34;;;;;;;5.93;3.65;;;22.00;53.60;;;;;;4972146;28;20393;-64
2022/05/10 03:48:00;;;;;;;5.60;3.70;;;22.00;53.70;;;;;;4972422;28;20428;-64
2022/05/10 03:50:26;;;;;;;10.98;3.50;;;22.00;53.80;;;;;;4972070;28;20995;-64
2022/05/10 03:52:52;;;;;;;6.33;3.40;;;22.00;53.20;;;;;;4971977;28;20385;-64
2022/05/10 03:55:21;;;;;;;10.65;3.85;;;22.10;53.90;;;;;;4971816;28;20637;-64
2022/05/10 03:57:47;;;;;;;5.60;3.40;;;22.10;53.80;;;;;;4972077;28;20388;-64
2022/05/10 04:00:17;;;;;;;6.63;3.50;;;22.10;53.90;;;;;;4972058;28;20406;-64
2022/05/10 04:02:44;;;;;;;5.30;3.22;;;22.10;53.90;;;;;;4975012;28;20411;-64
2022/05/10 04:05:10;;;;;;;5.57;3.30;;;22.10;53.10;;;;;;4987935;28;20469;-64
2022/05/10 04:07:36;;;;;;;6.30;3.38;;;22.10;53.20;;;;;;4993316;28;20493;-64
2022/05/10 04:10:03;;;;;;;7.30;4.47;;;22.00;53.20;;;;;;4994874;28;20493;-63
2022/05/10 04:12:28;;;;;;;5.95;3.70;;;22.00;52.20;;;;;;4994512;28;20411;-63
2022/05/10 04:14:55;;;;;;;6.33;3.77;;;21.90;52.80;;;;;;4994497;28;20453;-63
2022/05/10 04:17:21;;;;;;;7.45;3.30;;;21.90;52.20;;;;;;4994488;28;20387;-64
2022/05/10 04:19:47;;;;;;;10.23;3.40;;;21.80;52.40;;;;;;5009786;28;20409;-64
2022/05/10 04:22:12;;;;;;;10.52;3.55;;;21.90;52.20;;;;;;5009658;28;20398;-64
2022/05/10 04:24:39;;;;;;;7.47;3.80;;;21.90;52.00;;;;;;4994308;28;20909;-64
2022/05/10 04:27:05;;;;;;;9.77;5.00;;;21.90;52.00;;;;;;4994243;28;20481;-64
2022/05/10 04:29:30;;;;;;;21.08;11.68;;;21.80;51.70;;;;;;5009252;28;20513;-64
2022/05/10 04:31:56;;;;;;;15.60;11.18;;;21.80;51.20;;;;;;4999990;28;21022;-64
2022/05/10 04:34:22;;;;;;;16.50;13.30;;;21.80;51.30;;;;;;4991700;28;20401;-64
2022/05/10 04:36:47;;;;;;;15.45;13.25;;;21.80;51.00;;;;;;4994351;28;20770;-64
2022/05/10 04:39:13;;;;;;;19.07;14.17;;;21.80;50.80;;;;;;5012492;28;20401;-64
2022/05/10 04:41:48;;;;;;;17.92;14.60;;;21.80;51.00;;;;;;5013960;28;20381;-65
2022/05/10 04:44:14;;;;;;;17.38;14.40;;;21.80;51.00;;;;;;5013627;28;20413;-64
2022/05/10 04:46:41;;;;;;;15.25;13.23;;;21.70;50.90;;;;;;5013570;28;20874;-65
2022/05/10 04:49:10;;;;;;;15.18;12.55;;;21.80;50.90;;;;;;5013411;28;20412;-64
2022/05/10 04:51:37;;;;;;;15.68;12.50;;;21.70;51.00;;;;;;5013810;28;20401;-64
2022/05/10 04:54:03;;;;;;;14.68;12.77;;;21.80;51.00;;;;;;5013613;28;20385;-64
2022/05/10 04:56:29;;;;;;;15.48;12.27;;;21.80;51.20;;;;;;5013751;28;20928;-64
2022/05/10 04:58:55;;;;;;;14.95;11.80;;;21.80;51.30;;;;;;5013455;28;20440;-64
2022/05/10 05:01:26;;;;;;;15.20;12.00;;;21.80;51.70;;;;;;5013489;28;20809;-65
2022/05/10 05:03:56;;;;;;;12.73;11.18;;;21.80;52.80;;;;;;5013467;28;20389;-65
2022/05/10 05:06:24;;;;;;;15.25;11.63;;;21.90;53.10;;;;;;5013576;28;20385;-65
2022/05/10 05:08:50;;;;;;;14.70;10.90;;;21.90;53.30;;;;;;5028707;28;20415;-65
2022/05/10 05:11:16;;;;;;;13.07;10.60;;;22.00;53.20;;;;;;5012869;28;20522;-65
2022/05/10 05:13:42;;;;;;;11.70;10.18;;;22.00;53.20;;;;;;5013323;28;20892;-65
2022/05/10 05:16:08;;;;;;;12.32;10.48;;;22.10;53.30;;;;;;5013504;28;20480;-64
2022/05/10 05:18:34;;;;;;;12.73;9.73;;;22.10;53.10;;;;;;5013537;28;20471;-65
2022/05/10 05:21:00;;;;;;;13.35;9.23;;;22.10;53.20;;;;;;5012862;28;20392;-65
2022/05/10 05:23:25;;;;;;;13.77;9.40;;;22.10;53.30;;;;;;5013030;28;20439;-65
2022/05/10 05:25:55;;;;;;;10.63;8.80;;;22.10;53.40;;;;;;5013405;28;20443;-65
2022/05/10 05:28:21;;;;;;;10.48;8.95;;;22.20;53.40;;;;;;5013135;28;20400;-65
2022/05/10 05:30:48;;;;;;;9.45;8.18;;;22.10;53.30;;;;;;5012810;28;20430;-65
2022/05/10 05:33:14;;;;;;;11.35;8.30;;;22.20;53.30;;;;;;5012480;28;20392;-66
2022/05/10 05:35:40;;;;;;;11.18;7.90;;;22.20;53.20;;;;;;5012894;28;20407;-65
2022/05/10 05:38:06;;;;;;;10.10;8.05;;;22.20;53.20;;;;;;5012822;28;20393;-66
2022/05/10 05:40:34;;;;;;;10.15;7.90;;;22.20;53.30;;;;;;5012917;28;20392;-65
2022/05/10 05:42:59;;;;;;;18.73;8.00;;;22.20;53.10;;;;;;5012424;28;20844;-65
2022/05/10 05:45:25;;;;;;;11.63;7.97;;;22.20;52.60;;;;;;5012312;28;20432;-64
2022/05/10 05:47:51;;;;;;;9.48;7.57;;;22.20;52.60;;;;;;5013284;28;20869;-64
2022/05/10 05:50:20;;;;;;;11.20;7.50;;;22.20;53.00;;;;;;5008911;28;20435;-64
2022/05/10 05:52:47;;;;;;;12.35;7.78;;;22.20;52.80;;;;;;4997911;28;20398;-65
2022/05/10 05:55:14;;;;;;;9.32;7.50;;;22.20;53.10;;;;;;4991632;28;20390;-64
2022/05/10 05:57:40;;;;;;;10.13;7.90;;;22.10;52.90;;;;;;4992871;28;20394;-65
2022/05/10 06:00:09;;;;;;;11.23;7.93;;;22.20;52.80;;;;;;4979642;28;20788;-65
2022/05/10 06:02:37;;;;;;;10.38;7.43;;;22.10;52.60;;;;;;4973365;28;20401;-65
2022/05/10 06:05:03;;;;;;;8.90;7.40;;;22.20;52.50;;;;;;4977057;28;20463;-65
2022/05/10 06:07:29;;;;;;;10.57;7.30;;;22.10;52.40;;;;;;4978532;28;20400;-65
2022/05/10 06:09:54;;;;;;;7.90;7.10;;;22.20;52.30;;;;;;4989531;28;20986;-65
2022/05/10 06:12:21;;;;;;;8.25;7.22;;;22.10;52.10;;;;;;4992339;28;20898;-64
2022/05/10 06:14:47;;;;;;;10.32;7.53;;;22.20;52.00;;;;;;4992031;28;20403;-65
2022/05/10 06:17:14;;;;;;;9.15;7.30;;;22.20;52.00;;;;;;4991712;28;20469;-64
2022/05/10 06:19:41;;;;;;;7.57;6.72;;;22.20;51.80;;;;;;4992277;28;20402;-64
2022/05/10 06:22:09;;;;;;;7.57;6.78;;;22.20;51.70;;;;;;4992415;28;20398;-65
2022/05/10 06:24:34;;;;;;;7.30;6.47;;;22.30;51.70;;;;;;4991751;28;20855;-65
2022/05/10 06:27:01;;;;;;;7.68;6.90;;;22.30;51.60;;;;;;4992143;28;20477;-64
2022/05/10 06:29:27;;;;;;;7.30;6.60;;;22.30;51.50;;;;;;4991765;28;20522;-64
2022/05/10 06:31:52;;;;;;;7.63;6.38;;;22.30;51.40;;;;;;4992182;28;20478;-65
2022/05/10 06:34:18;;;;;;;7.70;6.57;;;22.30;51.40;;;;;;4992077;28;20433;-64
2022/05/10 06:36:45;;;;;;;6.63;6.03;;;22.30;51.30;;;;;;4991980;28;20398;-65
2022/05/10 06:39:11;;;;;;;8.50;6.10;;;22.30;51.30;;;;;;4991661;28;20461;-64
2022/05/10 06:41:38;;;;;;;6.53;5.88;;;22.30;51.20;;;;;;4992317;28;20394;-64
2022/05/10 06:44:05;;;;;;;6.88;6.18;;;22.30;51.20;;;;;;5007210;28;20410;-65
2022/05/10 06:46:34;;;;;;;7.20;6.30;;;22.30;51.10;;;;;;5006744;28;20751;-65
2022/05/10 06:49:01;;;;;;;6.63;5.82;;;22.30;51.10;;;;;;4991813;28;20418;-64
2022/05/10 06:51:28;;;;;;;6.32;5.57;;;22.30;51.10;;;;;;5007014;28;20409;-66
2022/05/10 06:53:54;;;;;;;6.38;5.72;;;22.30;51.00;;;;;;4992148;28;20436;-65
2022/05/10 06:56:21;;;;;;;7.25;5.85;;;22.40;51.10;;;;;;4991940;28;20398;-64
2022/05/10 06:58:48;;;;;;;6.50;5.80;;;22.40;51.40;;;;;;4991692;28;20393;-65
2022/05/10 07:01:14;;;;;;;7.05;6.00;;;22.40;51.40;;;;;;4997022;28;20407;-65
2022/05/10 07:03:45;;;;;;;6.80;6.10;;;22.40;51.30;;;;;;5007541;28;20390;-65
2022/05/10 07:06:13;;;;;;;6.18;5.45;;;22.40;51.30;;;;;;5007050;28;20854;-65
2022/05/10 07:08:39;;;;;;;7.50;5.43;;;22.40;51.20;;;;;;4994508;28;20765;-65
2022/05/10 07:11:06;;;;;;;6.88;5.35;;;22.40;51.20;;;;;;5010037;28;20764;-64
2022/05/10 07:13:33;;;;;;;11.05;7.30;;;22.40;51.10;;;;;;5005027;28;20402;-64
2022/05/10 07:15:59;;;;;;;10.90;7.53;;;22.50;52.00;;;;;;5003752;28;20397;-64
2022/05/10 07:18:25;;;;;;;10.18;6.50;;;22.60;52.10;;;;;;5011714;28;20403;-64
2022/05/10 07:20:52;;;;;;;8.53;6.97;;;22.70;51.80;;;;;;4998919;28;20433;-64
2022/05/10 07:23:28;;;;;;;10.70;6.70;;;22.70;51.70;;;;;;5018552;28;20413;-64
2022/05/10 07:25:55;;;;;;;9.50;6.20;;;22.70;51.50;;;;;;5006413;28;20489;-64
2022/05/10 07:28:20;;;;;;;7.60;5.82;;;22.70;51.60;;;;;;4987188;28;20863;-63
2022/05/10 07:30:47;;;;;;;9.23;5.90;;;22.70;51.50;;;;;;5004265;28;20494;-64
2022/05/10 07:33:13;;;;;;;8.93;5.55;;;22.70;51.30;;;;;;5005658;28;20391;-63
2022/05/10 07:38:23;;;;;;;6.50;5.20;;;22.70;51.20;;;;;;4998877;28;20423;-64
2022/05/10 07:40:49;;;;;;;8.90;5.45;;;22.70;51.20;;;;;;5008736;28;20405;-64
2022/05/10 07:43:17;;;;;;;6.22;5.07;;;22.70;51.10;;;;;;5013363;28;20403;-64
2022/05/10 07:45:48;;;;;;;8.20;5.10;;;22.70;51.00;;;;;;4996564;28;20413;-63
2022/05/10 07:48:14;;;;;;;6.03;4.80;;;22.70;51.00;;;;;;4991251;28;20401;-64
2022/05/10 07:50:40;;;;;;;7.05;5.03;;;22.70;50.90;;;;;;4981912;28;20931;-64
2022/05/10 07:53:10;;;;;;;6.80;5.15;;;22.70;50.90;;;;;;4984088;28;20407;-64
2022/05/10 07:55:36;;;;;;;5.47;4.80;;;22.70;50.90;;;;;;4984007;28;20394;-64
2022/05/10 07:58:06;;;;;;;5.82;4.50;;;22.70;50.80;;;;;;4994488;28;20390;-64
2022/05/10 08:00:37;;;;;;;5.85;4.50;;;22.70;50.70;;;;;;4994322;28;20806;-64
2022/05/10 08:03:17;;;;;;;5.70;4.43;;;22.70;50.70;;;;;;4994316;28;20732;-64
2022/05/10 08:05:43;;;;;;;6.38;4.60;;;22.70;50.70;;;;;;4993295;28;20411;-64
2022/05/10 08:08:11;;;;;;;6.28;4.20;;;22.70;50.70;;;;;;5009577;28;20452;-64
2022/05/10 08:10:38;;;;;;;6.40;4.28;;;22.70;50.70;;;;;;5005084;28;20456;-64
2022/05/10 08:13:08;;;;;;;5.30;4.35;;;22.70;50.50;;;;;;5013838;28;20408;-64
2022/05/10 08:15:33;;;;;;;6.10;4.25;;;22.70;50.50;;;;;;5013440;28;20389;-64
2022/05/10 08:17:59;;;;;;;4.80;4.30;;;22.70;50.50;;;;;;4982273;28;20496;-64
2022/05/10 08:20:25;;;;;;;4.85;4.30;;;22.70;50.50;;;;;;4984565;28;20886;-64
2022/05/10 08:22:51;;;;;;;5.07;4.23;;;22.70;50.40;;;;;;4983013;28;20400;-64
2022/05/10 08:25:16;;;;;;;5.75;4.15;;;22.70;50.40;;;;;;4993947;28;20390;-64
2022/05/10 08:27:42;;;;;;;5.23;4.60;;;22.70;50.40;;;;;;4994806;28;20394;-64
2022/05/10 08:30:09;;;;;;;4.18;3.78;;;22.70;50.40;;;;;;4994236;28;20422;-64
2022/05/10 08:32:34;;;;;;;5.22;3.90;;;22.70;50.40;;;;;;5010621;28;20406;-64
2022/05/10 08:35:00;;;;;;;4.78;3.90;;;22.70;50.40;;;;;;4996900;28;20410;-64
2022/05/10 08:37:26;;;;;;;5.63;3.93;;;22.70;50.30;;;;;;4993267;28;20387;-64
2022/05/10 08:39:51;;;;;;;5.25;4.22;;;22.70;50.30;;;;;;4985907;28;20896;-64
2022/05/10 08:42:30;;;;;;;4.53;3.72;;;22.70;50.20;;;;;;4989478;28;20757;-64
2022/05/10 08:45:00;;;;;;;4.90;4.05;;;22.70;50.20;;;;;;5010978;28;20393;-64
2022/05/10 08:47:27;;;;;;;4.25;3.85;;;22.70;50.10;;;;;;5012113;28;20400;-64
2022/05/10 08:50:01;;;;;;;4.88;4.28;;;22.70;50.00;;;;;;5013151;28;20452;-64
2022/05/10 08:52:34;;;;;;;4.50;4.05;;;22.70;50.00;;;;;;5006741;28;20403;-64
2022/05/10 08:55:00;;;;;;;4.57;3.90;;;22.70;49.90;;;;;;5008770;28;20392;-64
2022/05/10 08:57:49;;;;;;;4.13;3.60;;;22.70;50.00;;;;;;5011389;28;20385;-64
2022/05/10 09:00:33;;;;;;;4.20;3.80;;;22.70;50.00;;;;;;4996186;28;20484;-64
2022/05/10 09:03:00;;;;;;;4.00;3.60;;;22.70;50.00;;;;;;5013151;28;20392;-64
2022/05/10 09:05:36;;;;;;;4.35;3.83;;;22.70;49.90;;;;;;5008875;28;21141;-64
2022/05/10 09:08:26;;;;;;;4.55;3.97;;;22.70;49.90;;;;;;5012934;28;20396;-64
2022/05/10 09:11:00;;;;;;;4.60;3.70;;;22.70;49.90;;;;;;5006680;28;20954;-64
2022/05/10 09:13:26;;;;;;;5.53;4.00;;;22.70;50.00;;;;;;5010186;28;20421;-64
2022/05/10 09:16:08;;;;;;;4.40;4.00;;;22.70;50.00;;;;;;5003854;28;20965;-64
2022/05/10 09:18:50;;;;;;;7.25;5.55;;;22.70;50.10;;;;;;4984082;28;20411;-64
2022/05/10 09:21:26;;;;;;;5.05;4.45;;;22.80;55.20;;;;;;4979129;28;20892;-64
2022/05/10 09:23:58;;;;;;;4.90;4.10;;;22.80;53.80;;;;;;4973884;28;20393;-64
2022/05/10 09:26:33;;;;;;;5.10;4.10;;;22.80;52.60;;;;;;4973820;28;20404;-65
2022/05/10 09:29:10;;;;;;;7.50;4.20;;;22.90;52.30;;;;;;4973621;28;20435;-64
2022/05/10 09:37:15;;;;;;;6.75;3.90;;;22.80;51.40;;;;;;4997891;28;20399;-63
2022/05/10 09:39:48;;;;;;;4.40;3.42;;;22.80;51.30;;;;;;4992756;28;20398;-63
2022/05/10 09:42:28;;;;;;;5.10;4.00;;;22.80;51.00;;;;;;4993089;28;20383;-64
2022/05/10 09:44:59;;;;;;;4.13;3.60;;;22.80;50.90;;;;;;4989247;28;20396;-64
2022/05/10 09:47:25;;;;;;;4.18;3.60;;;22.80;50.70;;;;;;4981202;28;20402;-64
2022/05/10 09:49:51;;;;;;;4.75;3.72;;;22.80;50.80;;;;;;4980920;28;21005;-64
2022/05/10 09:52:20;;;;;;;5.23;3.40;;;22.80;50.50;;;;;;4979681;28;20392;-64
2022/05/10 09:54:47;;;;;;;4.22;3.70;;;22.80;50.60;;;;;;4980616;28;20394;-64
2022/05/10 09:57:35;;;;;;;4.00;3.40;;;22.80;50.50;;;;;;4981100;28;20389;-64
2022/05/10 10:00:11;;;;;;;5.13;3.80;;;22.80;50.40;;;;;;4979060;28;21169;-64
2022/05/10 10:02:39;;;;;;;5.05;3.70;;;22.80;50.60;;;;;;4979445;28;20451;-64
2022/05/10 10:05:31;;;;;;;3.88;3.47;;;22.80;50.30;;;;;;4980953;28;20402;-65
2022/05/10 10:07:58;;;;;;;4.28;3.55;;;22.80;50.30;;;;;;4988646;28;20410;-64
2022/05/10 10:10:31;;;;;;;4.60;3.50;;;22.90;50.10;;;;;;4992337;28;20423;-64
2022/05/10 10:12:58;;;;;;;4.90;3.47;;;22.90;50.30;;;;;;4992089;28;20421;-64
2022/05/10 10:15:40;;;;;;;4.30;3.50;;;22.80;50.00;;;;;;4991352;28;20476;-64
2022/05/10 10:18:41;;;;;;;4.77;3.63;;;22.80;50.20;;;;;;4982778;28;20409;-64
2022/05/10 10:21:11;;;;;;;4.90;3.30;;;22.80;50.00;;;;;;4971908;28;20384;-65
2022/05/10 10:23:41;;;;;;;4.60;3.40;;;22.80;49.90;;;;;;4971571;28;20399;-65
2022/05/10 10:26:25;;;;;;;4.13;3.45;;;22.80;49.90;;;;;;4976206;28;20971;-65
2022/05/10 10:29:05;;;;;;;3.83;3.38;;;22.80;49.90;;;;;;4982081;28;20394;-64
2022/05/10 10:31:36;;;;;;;4.45;3.50;;;22.90;49.90;;;;;;4981736;28;20398;-65
2022/05/10 10:34:29;;;;;;;4.47;3.40;;;22.80;50.00;;;;;;4981399;28;20422;-65
2022/05/10 10:37:19;;;;;;;4.90;3.38;;;22.80;49.70;;;;;;4979688;28;20404;-65
2022/05/10 10:39:51;;;;;;;3.20;2.90;;;22.80;49.70;;;;;;4977905;28;20804;-65
2022/05/10 10:42:57;;;;;;;3.87;3.30;;;22.80;49.60;;;;;;4971716;28;20420;-64
2022/05/10 10:45:50;;;;;;;4.80;3.60;;;22.90;49.70;;;;;;4963224;28;20942;-64
2022/05/10 10:48:21;;;;;;;4.20;3.40;;;22.90;50.00;;;;;;4971718;28;20455;-64
2022/05/10 10:50:47;;;;;;;4.05;3.17;;;22.90;49.70;;;;;;4970932;28;20431;-64
2022/05/10 10:53:13;;;;;;;4.82;3.40;;;22.90;49.50;;;;;;4972780;28;20479;-65
2022/05/10 10:55:44;;;;;;;5.22;3.60;;;22.90;49.60;;;;;;4979547;28;20503;-65
2022/05/10 10:58:34;;;;;;;4.00;3.60;;;22.90;49.60;;;;;;4981672;28;20477;-65
2022/05/10 11:01:22;;;;;;;3.70;3.30;;;22.90;49.70;;;;;;4979377;28;20748;-65
2022/05/10 11:04:04;;;;;;;4.20;3.20;;;22.90;50.00;;;;;;4987613;28;20408;-65
2022/05/10 11:06:55;;;;;;;4.20;3.40;;;22.90;50.00;;;;;;4972193;28;20404;-64
2022/05/10 11:09:38;;;;;;;3.47;3.17;;;22.90;49.80;;;;;;4971932;28;20928;-65
2022/05/10 11:12:07;;;;;;;4.00;3.20;;;22.90;49.90;;;;;;4976199;28;20515;-64
2022/05/10 11:14:46;;;;;;;4.68;3.30;;;22.90;49.80;;;;;;4976011;28;20399;-65
2022/05/10 11:17:14;;;;;;;4.15;3.47;;;22.90;49.60;;;;;;4976236;28;20488;-64
2022/05/10 11:20:15;;;;;;;4.85;3.60;;;22.90;49.70;;;;;;4975601;28;20943;-64
2022/05/10 11:23:03;;;;;;;4.55;3.22;;;23.00;49.60;;;;;;4976145;28;20487;-64
2022/05/10 11:26:09;;;;;;;4.43;3.20;;;23.00;49.60;;;;;;4975634;28;20486;-64
2022/05/10 11:28:46;;;;;;;3.25;2.90;;;22.90;49.30;;;;;;4975938;28;20442;-64
2022/05/10 11:31:19;;;;;;;3.83;3.17;;;22.90;49.40;;;;;;4991057;28;20505;-64
2022/05/10 11:34:26;;;;;;;4.13;3.20;;;23.00;49.20;;;;;;4975373;28;20752;-64
2022/05/10 11:36:53;;;;;;;3.50;3.20;;;23.00;49.10;;;;;;4990766;28;20411;-64
2022/05/10 11:39:37;;;;;;;4.07;3.00;;;23.00;49.20;;;;;;4975596;28;20396;-65
2022/05/10 11:42:11;;;;;;;3.65;3.25;;;23.00;49.20;;;;;;4975669;28;20427;-64
2022/05/10 11:45:15;;;;;;;3.90;3.30;;;23.00;49.40;;;;;;4975649;28;20385;-65
2022/05/10 11:48:13;;;;;;;5.50;3.33;;;23.00;49.10;;;;;;4973130;28;20402;-64
2022/05/10 11:54:13;;;;;;;4.70;3.33;;;23.00;49.10;;;;;;4999742;28;20521;-64
2022/05/10 11:56:40;;;;;;;4.80;3.50;;;23.00;49.10;;;;;;5017162;28;20491;-64
2022/05/10 11:59:13;;;;;;;4.63;3.58;;;23.00;50.40;;;;;;5029720;28;20397;-63
2022/05/10 12:01:50;;;;;;;4.07;3.50;;;23.00;50.10;;;;;;4988442;28;20456;-63
2022/05/10 12:04:28;;;;;;;38.58;35.90;;;23.10;50.60;;;;;;5013560;28;20385;-64
2022/05/10 12:06:55;;;;;;;20.60;18.50;;;23.40;51.70;;;;;;4999576;28;20403;-63
2022/05/10 12:09:52;;;;;;;21.25;19.35;;;23.80;49.20;;;;;;4986774;28;20414;-64
2022/05/10 12:12:33;;;;;;;19.95;18.35;;;24.20;49.50;;;;;;4984809;28;20421;-63
2022/05/10 12:21:21;;;;;;;16.15;14.75;;;24.20;49.70;;;;;;4987361;28;20382;-65
2022/05/10 12:24:11;;;;;;;16.30;15.00;;;24.10;49.50;;;;;;4994232;28;20517;-63
2022/05/10 12:27:17;;;;;;;14.67;13.37;;;24.00;49.50;;;;;;4994546;28;20399;-64
2022/05/10 12:29:42;;;;;;;13.65;12.57;;;24.00;49.40;;;;;;4988270;28;20410;-64
2022/05/10 12:32:39;;;;;;;13.00;11.83;;;23.90;49.20;;;;;;5009685;28;20475;-63
2022/05/10 12:35:10;;;;;;;11.80;10.80;;;23.90;49.80;;;;;;5009536;28;20399;-64
2022/05/10 12:37:52;;;;;;;11.40;10.30;;;23.80;49.10;;;;;;4993942;28;20386;-64
2022/05/10 12:40:41;;;;;;;10.90;10.00;;;23.80;49.00;;;;;;4994355;28;20394;-63
2022/05/10 12:43:36;;;;;;;10.40;9.50;;;23.80;49.10;;;;;;5000251;28;20391;-64
2022/05/10 12:46:15;;;;;;;9.68;8.80;;;23.80;49.00;;;;;;4994402;28;20390;-64
2022/05/10 12:48:58;;;;;;;8.98;8.25;;;23.80;49.00;;;;;;4994103;28;20401;-64
2022/05/10 12:51:29;;;;;;;8.68;7.97;;;23.70;49.30;;;;;;5008127;28;20402;-63
2022/05/10 12:54:20;;;;;;;8.48;7.75;;;23.70;48.70;;;;;;5008415;28;20767;-63
2022/05/10 12:56:48;;;;;;;8.75;7.93;;;23.70;48.70;;;;;;5008982;28;20894;-63
2022/05/10 12:59:20;;;;;;;7.88;7.28;;;23.70;48.60;;;;;;5009027;28;20398;-63
2022/05/10 13:01:47;;;;;;;8.03;7.33;;;23.70;48.60;;;;;;5008474;28;20995;-64
2022/05/10 13:04:20;;;;;;;7.60;6.90;;;23.70;48.50;;;;;;4987109;28;20878;-63
2022/05/10 13:07:08;;;;;;;7.40;6.70;;;23.70;48.40;;;;;;4984079;28;20425;-64
2022/05/10 13:10:04;;;;;;;6.90;6.30;;;23.70;48.30;;;;;;4997735;28;20863;-64
2022/05/10 13:12:36;;;;;;;7.03;6.43;;;23.60;48.20;;;;;;4984301;28;20853;-64
2022/05/10 13:15:14;;;;;;;6.20;5.70;;;23.60;48.20;;;;;;4984052;28;20401;-64
2022/05/10 13:17:45;;;;;;;6.20;5.70;;;23.70;48.20;;;;;;4984132;28;20398;-64
2022/05/10 13:20:13;;;;;;;6.38;5.80;;;23.60;48.10;;;;;;4984097;28;20541;-64
2022/05/10 13:22:54;;;;;;;6.13;5.53;;;23.60;48.10;;;;;;4998306;28;20396;-64
2022/05/10 13:25:30;;;;;;;5.97;5.38;;;23.60;48.00;;;;;;4984549;28;20402;-64
2022/05/10 13:28:21;;;;;;;5.60;5.20;;;23.60;48.00;;;;;;4983645;28;20414;-63
2022/05/10 13:30:51;;;;;;;5.53;5.03;;;23.60;48.00;;;;;;4991354;28;20418;-63